Time;durP1;ratioP1;P1;durP2;ratioP2;P2;SDS_P1;SDS_P2;PMS_P1;PMS_P2;Temp;Humidity;BMP_temperature;BMP_pressure;BME280_temperature;BME280_humidity;BME280_pressure;Samples;Min_cycle;Max_cycle;Signal;HPM_P1;HPM_P2
2021/05/21 00:00:28;;;;;;;3.53;2.42;;;13.30;99.90;;;;;;5092875;28;20229;-72
2021/05/21 00:02:55;;;;;;;3.10;2.60;;;13.30;99.90;;;;;;5092329;28;20221;-72
2021/05/21 00:05:22;;;;;;;9.70;3.10;;;13.30;99.90;;;;;;5092817;28;20558;-72
2021/05/21 00:07:48;;;;;;;2.58;2.35;;;13.20;99.90;;;;;;5092930;28;20205;-72
2021/05/21 00:10:15;;;;;;;2.60;2.40;;;13.20;99.90;;;;;;5091993;28;20241;-71
2021/05/21 00:12:41;;;;;;;4.47;2.88;;;13.20;99.90;;;;;;5092766;28;20721;-71
2021/05/21 00:15:10;;;;;;;4.00;2.38;;;13.20;99.90;;;;;;5091998;28;20209;-71
2021/05/21 00:17:37;;;;;;;3.72;2.90;;;13.20;99.90;;;;;;5092478;28;20224;-71
2021/05/21 00:20:04;;;;;;;4.50;3.22;;;13.10;99.90;;;;;;5091629;28;20233;-72
2021/05/21 00:22:31;;;;;;;4.38;3.30;;;13.10;99.90;;;;;;5092407;28;20198;-72
2021/05/21 00:24:57;;;;;;;4.40;3.42;;;13.10;99.90;;;;;;5092051;28;20225;-71
2021/05/21 00:27:24;;;;;;;6.10;3.30;;;13.10;99.90;;;;;;5092240;28;20212;-72
2021/05/21 00:29:50;;;;;;;6.28;3.70;;;12.90;99.90;;;;;;5092660;28;20213;-71
2021/05/21 00:32:18;;;;;;;4.68;3.10;;;12.80;99.90;;;;;;5091904;28;20205;-71
2021/05/21 00:34:44;;;;;;;7.47;3.53;;;12.80;99.90;;;;;;5091991;28;20205;-72
2021/05/21 00:37:10;;;;;;;4.25;2.88;;;12.80;99.90;;;;;;5091440;28;20232;-72
2021/05/21 00:39:37;;;;;;;5.38;3.00;;;12.60;99.90;;;;;;5092100;28;20225;-72
2021/05/21 00:42:07;;;;;;;3.33;2.78;;;12.70;99.90;;;;;;5091681;28;20241;-72
2021/05/21 00:44:33;;;;;;;4.50;3.25;;;12.80;99.90;;;;;;5091791;28;20212;-72
2021/05/21 00:46:59;;;;;;;5.47;2.83;;;12.80;99.90;;;;;;5091568;28;20201;-72
2021/05/21 00:49:27;;;;;;;3.95;2.92;;;12.60;99.90;;;;;;5091577;28;20206;-72
2021/05/21 00:51:53;;;;;;;4.32;2.85;;;12.60;99.90;;;;;;5082468;28;20590;-72
2021/05/21 00:54:20;;;;;;;3.80;3.00;;;12.70;99.90;;;;;;5084177;28;20206;-72
2021/05/21 00:56:48;;;;;;;3.13;2.67;;;12.70;99.90;;;;;;5091817;28;20206;-72
2021/05/21 00:59:16;;;;;;;4.00;2.83;;;12.70;99.90;;;;;;5091188;28;20267;-72
2021/05/21 01:01:45;;;;;;;6.95;2.50;;;12.60;99.90;;;;;;5091060;28;20838;-72
2021/05/21 01:04:13;;;;;;;2.85;2.13;;;12.70;99.90;;;;;;5091147;28;20752;-72
2021/05/21 01:06:40;;;;;;;5.88;3.22;;;12.80;99.90;;;;;;5091092;28;20632;-72
2021/05/21 01:09:07;;;;;;;5.13;2.97;;;12.70;99.90;;;;;;5091431;28;20312;-71
2021/05/21 01:11:33;;;;;;;3.70;2.72;;;12.70;99.90;;;;;;5091443;28;20209;-71
2021/05/21 01:13:59;;;;;;;5.35;2.75;;;12.70;99.90;;;;;;5091101;28;20251;-73
2021/05/21 01:16:26;;;;;;;3.35;3.00;;;12.80;99.90;;;;;;5091186;28;20694;-72
2021/05/21 01:18:52;;;;;;;7.85;2.50;;;12.80;99.90;;;;;;5090878;28;20676;-73
2021/05/21 01:21:20;;;;;;;2.15;1.95;;;12.90;99.90;;;;;;5091378;28;20716;-73
2021/05/21 01:23:46;;;;;;;4.53;2.22;;;12.80;99.90;;;;;;5090874;28;20208;-72
2021/05/21 01:26:13;;;;;;;6.05;2.05;;;12.80;99.90;;;;;;5090576;28;20197;-72
2021/05/21 01:28:41;;;;;;;6.30;2.53;;;12.80;99.90;;;;;;5076765;28;20210;-72
2021/05/21 01:31:07;;;;;;;5.93;2.53;;;12.90;99.90;;;;;;5090740;28;20684;-71
2021/05/21 01:33:34;;;;;;;3.53;2.30;;;12.80;99.90;;;;;;5090964;28;20206;-72
2021/05/21 01:36:00;;;;;;;4.10;2.28;;;12.80;99.90;;;;;;5090602;28;20640;-71
2021/05/21 01:38:28;;;;;;;4.18;2.50;;;12.80;99.90;;;;;;5090919;28;20688;-72
2021/05/21 01:40:57;;;;;;;6.57;3.63;;;12.90;99.90;;;;;;5090192;28;20229;-72
2021/05/21 01:43:23;;;;;;;4.88;2.72;;;12.80;99.90;;;;;;5090870;28;20209;-72
2021/05/21 01:45:50;;;;;;;3.70;2.90;;;12.80;99.90;;;;;;5091313;28;20202;-72
2021/05/21 01:48:17;;;;;;;3.67;2.27;;;12.80;99.90;;;;;;5090271;28;20212;-72
2021/05/21 01:50:44;;;;;;;3.00;2.25;;;12.90;99.90;;;;;;5090901;28;20206;-71
2021/05/21 01:53:10;;;;;;;3.97;2.40;;;12.90;99.90;;;;;;5090177;28;20209;-72
2021/05/21 01:55:38;;;;;;;4.28;2.63;;;12.90;99.90;;;;;;5090685;28;20205;-73
2021/05/21 01:58:04;;;;;;;4.35;2.30;;;12.60;99.90;;;;;;5090360;28;20206;-72
2021/05/21 02:00:31;;;;;;;4.88;2.10;;;12.70;99.90;;;;;;5090841;28;20229;-72
2021/05/21 02:02:57;;;;;;;7.00;2.90;;;12.60;99.90;;;;;;5090031;28;20240;-72
2021/05/21 02:05:24;;;;;;;5.20;2.70;;;12.40;99.90;;;;;;5089815;28;20583;-72
2021/05/21 02:07:50;;;;;;;4.53;2.83;;;12.40;99.90;;;;;;5090667;28;20584;-72
2021/05/21 02:10:17;;;;;;;4.27;3.17;;;12.60;99.90;;;;;;5090326;28;20213;-72
2021/05/21 02:12:45;;;;;;;3.53;3.15;;;12.50;99.90;;;;;;5063199;28;20822;-72
2021/05/21 02:15:13;;;;;;;6.77;2.83;;;12.60;99.90;;;;;;5069984;28;20288;-72
2021/05/21 02:17:40;;;;;;;4.83;3.47;;;12.60;99.90;;;;;;5070070;28;20225;-71
2021/05/21 02:20:08;;;;;;;4.53;3.00;;;12.60;99.90;;;;;;5069933;28;20271;-72
2021/05/21 02:22:38;;;;;;;3.77;2.50;;;12.40;99.90;;;;;;5070178;28;20214;-72
2021/05/21 02:25:06;;;;;;;5.00;3.10;;;12.60;99.90;;;;;;5069634;28;20250;-71
2021/05/21 02:27:32;;;;;;;6.80;3.17;;;12.50;99.90;;;;;;5070452;28;20210;-71
2021/05/21 02:30:00;;;;;;;6.78;3.58;;;12.50;99.90;;;;;;5069689;28;20214;-71
2021/05/21 02:32:26;;;;;;;4.20;2.40;;;12.50;99.90;;;;;;5056378;28;20198;-72
2021/05/21 02:34:53;;;;;;;4.03;2.67;;;12.40;99.90;;;;;;5070202;28;20572;-72
2021/05/21 02:37:19;;;;;;;5.87;2.70;;;12.40;99.90;;;;;;5070163;28;20671;-71
2021/05/21 02:39:46;;;;;;;3.65;2.50;;;12.40;99.90;;;;;;5070132;28;20198;-71
2021/05/21 02:42:12;;;;;;;6.50;3.20;;;12.40;99.90;;;;;;5069372;28;20214;-71
2021/05/21 02:44:39;;;;;;;2.73;2.40;;;12.30;99.90;;;;;;5070102;28;20252;-71
2021/05/21 02:47:06;;;;;;;3.00;2.20;;;12.30;99.90;;;;;;5069304;28;20229;-71
2021/05/21 02:49:34;;;;;;;4.30;2.97;;;12.30;99.90;;;;;;5070246;28;20202;-71
2021/05/21 02:52:01;;;;;;;4.47;3.13;;;12.40;99.90;;;;;;5069467;28;20267;-71
2021/05/21 02:54:27;;;;;;;6.07;3.23;;;12.40;99.90;;;;;;5064817;28;20206;-71
2021/05/21 02:56:54;;;;;;;3.57;2.57;;;12.30;99.90;;;;;;5069747;28;20229;-72
2021/05/21 02:59:20;;;;;;;2.97;2.07;;;12.30;99.90;;;;;;5069926;28;20209;-71
2021/05/21 03:01:47;;;;;;;5.10;2.77;;;12.20;99.90;;;;;;5069769;28;20275;-72
2021/05/21 03:04:14;;;;;;;5.30;2.63;;;12.30;99.90;;;;;;5069191;28;21044;-72
2021/05/21 03:06:41;;;;;;;4.60;2.80;;;12.40;99.90;;;;;;5069604;28;20221;-72
2021/05/21 03:09:07;;;;;;;5.33;2.70;;;12.50;99.90;;;;;;5069614;28;20263;-71
2021/05/21 03:11:34;;;;;;;5.67;2.70;;;12.50;99.90;;;;;;5069947;28;20213;-71
2021/05/21 03:14:00;;;;;;;3.93;3.43;;;12.40;99.90;;;;;;5069315;28;20260;-72
2021/05/21 03:16:27;;;;;;;4.47;2.70;;;12.30;99.90;;;;;;5069602;28;20578;-72
2021/05/21 03:18:53;;;;;;;6.63;3.33;;;12.30;99.90;;;;;;5073094;28;20677;-72
2021/05/21 03:21:21;;;;;;;3.63;2.77;;;12.20;99.90;;;;;;5073199;28;20234;-72
2021/05/21 03:23:47;;;;;;;6.87;3.90;;;12.20;99.90;;;;;;5073410;28;20202;-72
2021/05/21 03:26:14;;;;;;;4.43;2.73;;;12.20;99.90;;;;;;5072912;28;20252;-71
2021/05/21 03:28:40;;;;;;;5.50;2.60;;;12.30;99.90;;;;;;5073193;28;20202;-71
2021/05/21 03:31:07;;;;;;;6.23;2.67;;;12.20;99.90;;;;;;5072731;28;20207;-72
2021/05/21 03:33:34;;;;;;;3.07;2.67;;;12.10;99.90;;;;;;5072946;28;20206;-72
2021/05/21 03:36:01;;;;;;;2.67;2.03;;;11.90;99.90;;;;;;5072527;28;20327;-72
2021/05/21 03:38:28;;;;;;;4.20;2.90;;;11.90;99.90;;;;;;5072948;28;20213;-73
2021/05/21 03:40:55;;;;;;;6.07;2.60;;;12.00;99.90;;;;;;5072743;28;20230;-72
2021/05/21 03:43:21;;;;;;;4.20;2.45;;;12.10;99.90;;;;;;5072748;28;20309;-72
2021/05/21 03:45:48;;;;;;;5.13;3.03;;;12.20;99.90;;;;;;5073143;28;20267;-72
2021/05/21 03:48:15;;;;;;;4.27;2.13;;;12.30;99.90;;;;;;5072283;28;20210;-72
2021/05/21 03:50:42;;;;;;;3.13;2.30;;;12.30;99.90;;;;;;5072620;28;20309;-72
2021/05/21 03:53:08;;;;;;;5.73;3.13;;;12.30;99.90;;;;;;5072541;28;20205;-72
2021/05/21 03:55:35;;;;;;;2.60;2.40;;;12.20;99.90;;;;;;5072579;28;20217;-72
2021/05/21 03:58:02;;;;;;;3.83;2.53;;;12.10;99.90;;;;;;5072231;28;20206;-72
2021/05/21 04:00:29;;;;;;;3.40;3.10;;;12.10;99.90;;;;;;5072127;28;20234;-72
2021/05/21 04:02:55;;;;;;;2.40;2.17;;;12.10;99.90;;;;;;5071937;28;20206;-71
2021/05/21 04:05:22;;;;;;;5.47;2.60;;;12.20;99.90;;;;;;5072647;28;20342;-73
2021/05/21 04:07:50;;;;;;;3.27;2.27;;;12.20;99.90;;;;;;5072849;28;20206;-71
2021/05/21 04:10:16;;;;;;;4.33;2.70;;;12.10;99.90;;;;;;5072187;28;20621;-70
2021/05/21 04:12:44;;;;;;;4.70;2.97;;;12.00;99.90;;;;;;5071945;28;20202;-71
2021/05/21 04:15:12;;;;;;;8.30;3.20;;;12.00;99.90;;;;;;5071722;28;20677;-72
2021/05/21 04:17:39;;;;;;;3.03;2.27;;;12.10;99.90;;;;;;5071880;28;20308;-72
2021/05/21 04:20:06;;;;;;;4.03;2.50;;;12.20;99.90;;;;;;5071906;28;20283;-72
2021/05/21 04:22:33;;;;;;;5.03;2.43;;;12.20;99.90;;;;;;5072128;28;20214;-72
2021/05/21 04:24:59;;;;;;;10.03;2.73;;;12.10;99.90;;;;;;5071524;28;20605;-72
2021/05/21 04:27:26;;;;;;;5.43;2.87;;;12.10;99.90;;;;;;5071806;28;20210;-72
2021/05/21 04:29:54;;;;;;;6.73;2.97;;;12.10;99.90;;;;;;5071192;28;20202;-72
2021/05/21 04:32:20;;;;;;;4.73;3.03;;;12.00;99.90;;;;;;5072269;28;20210;-72
2021/05/21 04:34:47;;;;;;;4.33;2.60;;;12.00;99.90;;;;;;5072208;28;20206;-72
2021/05/21 04:37:13;;;;;;;5.23;3.53;;;12.00;99.90;;;;;;5071640;28;20210;-72
2021/05/21 04:39:40;;;;;;;2.70;2.40;;;11.80;99.90;;;;;;5071929;28;20202;-72
2021/05/21 04:42:06;;;;;;;5.27;3.17;;;11.80;99.90;;;;;;5070892;28;20206;-72
2021/05/21 04:44:33;;;;;;;5.73;2.63;;;12.00;99.90;;;;;;5071637;28;20202;-72
2021/05/21 04:47:01;;;;;;;4.83;2.47;;;12.00;99.90;;;;;;5071283;28;20218;-72
2021/05/21 04:49:33;;;;;;;5.63;3.30;;;12.10;99.90;;;;;;5071566;28;20260;-72
2021/05/21 04:52:01;;;;;;;5.87;2.93;;;12.10;99.90;;;;;;5070849;28;20561;-72
2021/05/21 04:54:28;;;;;;;4.53;2.57;;;12.00;99.90;;;;;;5062297;28;20668;-72
2021/05/21 04:56:55;;;;;;;3.37;3.03;;;12.00;99.90;;;;;;5064988;28;20206;-72
2021/05/21 04:59:21;;;;;;;4.93;2.63;;;12.10;99.90;;;;;;5071145;28;20255;-72
2021/05/21 05:01:48;;;;;;;3.97;2.43;;;12.10;99.90;;;;;;5071390;28;20297;-72
2021/05/21 05:04:16;;;;;;;4.47;2.73;;;11.90;99.90;;;;;;5070781;28;20202;-72
2021/05/21 05:06:43;;;;;;;7.37;3.10;;;11.80;99.90;;;;;;5071261;28;20240;-71
2021/05/21 05:09:09;;;;;;;6.40;2.70;;;11.80;99.90;;;;;;5070512;28;20206;-72
2021/05/21 05:11:39;;;;;;;4.03;2.67;;;11.80;99.90;;;;;;5070998;28;20271;-71
2021/05/21 05:14:06;;;;;;;3.83;1.87;;;11.90;99.90;;;;;;5070768;28;20250;-71
2021/05/21 05:16:32;;;;;;;2.37;2.10;;;12.00;99.90;;;;;;5071237;28;20256;-71
2021/05/21 05:18:59;;;;;;;2.57;2.33;;;12.00;99.90;;;;;;5071142;28;20221;-71
2021/05/21 05:21:27;;;;;;;3.47;2.00;;;12.00;99.90;;;;;;5070325;28;20241;-71
2021/05/21 05:23:54;;;;;;;2.40;2.00;;;12.20;99.90;;;;;;5070617;28;20213;-72
2021/05/21 05:26:20;;;;;;;8.77;2.53;;;12.40;99.90;;;;;;5070571;28;20206;-71
2021/05/21 05:28:49;;;;;;;1.87;1.63;;;12.50;99.90;;;;;;5070944;28;20256;-71
2021/05/21 05:31:16;;;;;;;5.83;2.43;;;12.80;99.90;;;;;;5070763;28;20597;-72
2021/05/21 05:33:42;;;;;;;3.33;2.27;;;13.00;99.90;;;;;;5070452;28;20207;-72
2021/05/21 05:36:09;;;;;;;4.57;1.90;;;13.10;99.90;;;;;;5070414;28;20209;-71
2021/05/21 05:38:36;;;;;;;5.43;2.30;;;13.20;99.90;;;;;;5070453;28;20218;-72
2021/05/21 05:41:03;;;;;;;9.30;2.10;;;13.30;99.90;;;;;;5070460;28;20279;-72
2021/05/21 05:43:30;;;;;;;3.13;2.40;;;13.40;99.90;;;;;;5070695;28;20209;-72
2021/05/21 05:45:56;;;;;;;3.63;2.03;;;13.40;99.90;;;;;;5070812;28;20206;-71
2021/05/21 05:48:23;;;;;;;3.53;1.70;;;13.40;99.90;;;;;;5070701;28;20267;-70
2021/05/21 05:50:51;;;;;;;2.60;2.17;;;13.50;99.90;;;;;;5070521;28;20673;-72
2021/05/21 05:53:18;;;;;;;2.83;2.03;;;13.50;99.90;;;;;;5069912;28;20201;-72
2021/05/21 05:55:45;;;;;;;15.15;2.63;;;13.40;99.90;;;;;;5070422;28;20206;-71
2021/05/21 05:58:12;;;;;;;5.07;2.58;;;13.30;99.90;;;;;;5070470;28;20206;-72
2021/05/21 06:00:39;;;;;;;3.30;1.70;;;13.30;99.90;;;;;;5070445;28;20234;-71
2021/05/21 06:03:07;;;;;;;4.88;2.20;;;13.40;99.90;;;;;;5070195;28;20292;-72
2021/05/21 06:05:35;;;;;;;3.72;2.17;;;13.40;99.90;;;;;;5070068;28;20218;-72
2021/05/21 06:08:02;;;;;;;3.92;2.05;;;13.50;99.90;;;;;;5070257;28;20213;-71
2021/05/21 06:10:30;;;;;;;2.78;2.05;;;13.60;99.90;;;;;;5070241;28;20213;-71
2021/05/21 06:13:02;;;;;;;4.35;2.40;;;13.60;99.90;;;;;;5070358;28;20260;-72
2021/05/21 06:15:29;;;;;;;3.95;1.90;;;13.70;99.90;;;;;;5069975;28;20584;-72
2021/05/21 06:17:57;;;;;;;3.57;2.57;;;14.00;99.90;;;;;;5070424;28;20205;-72
2021/05/21 06:20:24;;;;;;;4.57;2.30;;;14.00;99.90;;;;;;5069928;28;20226;-73
2021/05/21 06:22:50;;;;;;;3.63;1.98;;;14.20;99.90;;;;;;5067961;28;20690;-71
2021/05/21 06:25:19;;;;;;;9.00;2.28;;;14.40;99.90;;;;;;5057978;28;20218;-72
2021/05/21 06:27:46;;;;;;;4.30;2.25;;;14.60;99.90;;;;;;5070256;28;20298;-73
2021/05/21 06:30:15;;;;;;;6.82;2.38;;;14.80;99.90;;;;;;5059827;28;20252;-72
2021/05/21 06:32:43;;;;;;;7.00;2.30;;;15.00;99.90;;;;;;5070070;28;20210;-72
2021/05/21 06:35:10;;;;;;;4.10;2.22;;;15.10;99.90;;;;;;5069401;28;20212;-73
2021/05/21 06:37:37;;;;;;;4.63;3.05;;;15.40;99.90;;;;;;5069960;28;20226;-73
2021/05/21 06:40:06;;;;;;;3.42;1.95;;;15.60;99.90;;;;;;5069673;28;20697;-72
2021/05/21 06:42:32;;;;;;;5.20;2.60;;;15.60;99.90;;;;;;5069710;28;20198;-74
2021/05/21 06:44:59;;;;;;;2.42;2.22;;;15.70;99.90;;;;;;5069933;28;20347;-73
2021/05/21 06:47:27;;;;;;;4.45;1.83;;;15.60;99.90;;;;;;5069445;28;20735;-72
2021/05/21 06:49:53;;;;;;;6.95;2.08;;;15.60;99.90;;;;;;5070513;28;20244;-73
2021/05/21 06:52:20;;;;;;;7.75;2.10;;;15.70;99.90;;;;;;5070431;28;20217;-72
2021/05/21 06:54:47;;;;;;;3.15;1.65;;;15.60;99.90;;;;;;5069613;28;20217;-74
2021/05/21 06:57:13;;;;;;;7.45;1.92;;;15.40;99.90;;;;;;5069917;28;20210;-72
2021/05/21 06:59:40;;;;;;;2.47;2.03;;;15.10;99.90;;;;;;5073348;28;20210;-74
2021/05/21 07:02:06;;;;;;;3.35;1.67;;;14.80;99.90;;;;;;5072908;28;20237;-72
2021/05/21 07:04:33;;;;;;;5.32;2.40;;;14.90;99.90;;;;;;5073763;28;20209;-70
2021/05/21 07:07:00;;;;;;;3.15;1.92;;;15.20;99.90;;;;;;5073704;28;20202;-71
2021/05/21 07:09:27;;;;;;;4.13;2.40;;;15.70;99.90;;;;;;5073342;28;20198;-70
2021/05/21 07:11:53;;;;;;;2.83;1.83;;;15.60;99.90;;;;;;5073864;28;20210;-72
2021/05/21 07:14:20;;;;;;;3.10;1.40;;;15.50;99.90;;;;;;5072978;28;20210;-71
2021/05/21 07:16:47;;;;;;;4.03;1.70;;;15.50;99.90;;;;;;5073427;28;20249;-71
2021/05/21 07:19:14;;;;;;;4.70;1.80;;;15.60;99.90;;;;;;5072440;28;20206;-71
2021/05/21 07:21:42;;;;;;;3.40;1.25;;;15.60;99.90;;;;;;5073183;28;20312;-71
2021/05/21 07:24:09;;;;;;;5.43;1.80;;;15.80;99.90;;;;;;5073061;28;20214;-72
2021/05/21 07:26:36;;;;;;;2.97;1.85;;;16.00;99.90;;;;;;5073053;28;20209;-71
2021/05/21 07:29:03;;;;;;;7.45;3.63;;;16.10;99.90;;;;;;5073281;28;20202;-71
2021/05/21 07:31:30;;;;;;;7.80;2.20;;;16.20;99.90;;;;;;5072604;28;20259;-71
2021/05/21 07:33:58;;;;;;;2.83;1.70;;;16.20;99.90;;;;;;5068181;28;20290;-70
2021/05/21 07:36:28;;;;;;;6.10;2.10;;;16.20;99.90;;;;;;5061342;28;20260;-70
2021/05/21 07:38:56;;;;;;;3.85;2.00;;;16.70;99.90;;;;;;5073101;28;20256;-71
2021/05/21 07:41:24;;;;;;;4.10;1.80;;;16.90;99.90;;;;;;5063835;28;20770;-71
2021/05/21 07:43:51;;;;;;;2.55;1.50;;;17.30;99.90;;;;;;5060228;28;20213;-70
2021/05/21 07:46:18;;;;;;;6.00;1.63;;;17.50;99.90;;;;;;5072806;28;20229;-70
2021/05/21 07:48:44;;;;;;;2.88;1.98;;;17.60;99.90;;;;;;5072548;28;20206;-71
2021/05/21 07:51:11;;;;;;;2.65;1.90;;;17.50;99.90;;;;;;5072447;28;20275;-71
2021/05/21 07:53:37;;;;;;;4.72;2.58;;;17.50;99.90;;;;;;5070909;28;20206;-71
2021/05/21 07:56:06;;;;;;;4.30;1.80;;;18.30;99.90;;;;;;5071324;28;20202;-73
2021/05/21 07:58:33;;;;;;;5.53;1.60;;;19.90;99.90;;;;;;5072498;28;20238;-73
2021/05/21 08:01:00;;;;;;;6.32;1.92;;;22.40;99.90;;;;;;5072747;28;20769;-73
2021/05/21 08:03:26;;;;;;;10.63;3.25;;;22.70;99.90;;;;;;5071308;28;20215;-72
2021/05/21 08:05:53;;;;;;;31.15;7.93;;;22.40;99.90;;;;;;5072243;28;20670;-71
2021/05/21 08:08:23;;;;;;;8.00;3.13;;;24.30;99.90;;;;;;5072105;28;20210;-72
2021/05/21 08:10:50;;;;;;;3.35;1.75;;;26.80;99.90;;;;;;5072007;28;20209;-72
2021/05/21 08:13:17;;;;;;;6.45;1.65;;;26.20;99.90;;;;;;5072351;28;20210;-71
2021/05/21 08:15:44;;;;;;;3.33;2.10;;;22.60;99.90;;;;;;5071911;28;20214;-71
2021/05/21 08:18:11;;;;;;;4.45;1.85;;;20.90;99.90;;;;;;5071464;28;20206;-71
2021/05/21 08:20:38;;;;;;;2.45;1.52;;;20.30;99.90;;;;;;5072100;28;20226;-71
2021/05/21 08:23:04;;;;;;;3.40;1.58;;;20.20;99.90;;;;;;5071764;28;20229;-71
2021/05/21 08:25:31;;;;;;;3.75;1.35;;;20.00;99.90;;;;;;5072077;28;20217;-72
2021/05/21 08:27:58;;;;;;;5.82;1.95;;;20.10;99.90;;;;;;5072420;28;20206;-72
2021/05/21 08:30:25;;;;;;;2.17;1.83;;;19.80;99.90;;;;;;5071612;28;20210;-71
2021/05/21 08:32:52;;;;;;;3.90;1.92;;;19.40;99.90;;;;;;5071988;28;20210;-73
2021/05/21 08:35:19;;;;;;;4.05;1.85;;;19.40;99.90;;;;;;5071264;28;20199;-71
2021/05/21 08:37:46;;;;;;;3.38;1.80;;;19.60;99.90;;;;;;5071695;28;20202;-71
2021/05/21 08:40:20;;;;;;;5.97;2.83;;;19.80;99.90;;;;;;5070907;28;20213;-72
2021/05/21 08:42:56;;;;;;;8.32;1.98;;;19.70;99.90;;;;;;5071859;28;20208;-72
2021/05/21 08:45:23;;;;;;;2.90;1.48;;;19.50;99.90;;;;;;5071055;28;20213;-72
2021/05/21 08:47:51;;;;;;;3.85;2.03;;;19.30;99.90;;;;;;5071422;28;20225;-72
2021/05/21 08:50:18;;;;;;;6.43;3.22;;;18.60;99.90;;;;;;5056931;28;20207;-71
2021/05/21 08:52:46;;;;;;;10.15;2.38;;;18.40;99.90;;;;;;5071841;28;20206;-70
2021/05/21 08:55:13;;;;;;;3.53;2.65;;;19.40;99.90;;;;;;5071364;28;20216;-70
2021/05/21 08:57:39;;;;;;;2.88;2.10;;;19.80;99.90;;;;;;5057922;28;20264;-71
2021/05/21 09:00:07;;;;;;;5.30;2.33;;;19.80;99.90;;;;;;5071300;28;20202;-72
2021/05/21 09:02:34;;;;;;;4.72;1.90;;;20.20;99.90;;;;;;5070883;28;20214;-71
2021/05/21 09:05:02;;;;;;;3.15;1.80;;;20.10;99.90;;;;;;5071746;28;20202;-71
2021/05/21 09:07:31;;;;;;;2.90;2.20;;;19.70;99.90;;;;;;5070842;28;20594;-72
2021/05/21 09:10:05;;;;;;;3.53;2.30;;;20.40;99.90;;;;;;5071124;28;20213;-72
2021/05/21 09:12:40;;;;;;;4.13;2.67;;;21.20;99.90;;;;;;5071308;28;20217;-71
2021/05/21 09:15:09;;;;;;;4.55;1.90;;;21.40;99.90;;;;;;5070088;28;20209;-71
2021/05/21 09:17:36;;;;;;;2.67;2.17;;;21.20;99.90;;;;;;5070648;28;20203;-70
2021/05/21 09:20:05;;;;;;;7.35;2.28;;;20.60;99.90;;;;;;5070972;28;20202;-70
2021/05/21 09:22:32;;;;;;;4.13;2.20;;;20.80;99.90;;;;;;5071321;28;20241;-70
2021/05/21 09:24:58;;;;;;;3.80;2.08;;;20.50;99.90;;;;;;5071031;28;20217;-72
2021/05/21 09:27:25;;;;;;;7.72;2.50;;;20.70;99.90;;;;;;5070664;28;20212;-71
2021/05/21 09:29:52;;;;;;;6.47;2.97;;;21.30;99.90;;;;;;5070539;28;20207;-72
2021/05/21 09:32:27;;;;;;;4.32;2.70;;;19.80;99.90;;;;;;5070720;28;20218;-73
2021/05/21 09:35:13;;;;;;;3.25;2.60;;;19.50;99.90;;;;;;5070492;28;20311;-72
2021/05/21 09:37:44;;;;;;;3.05;2.38;;;19.30;99.90;;;;;;5070845;28;20202;-72
2021/05/21 09:40:13;;;;;;;2.90;1.95;;;20.30;99.90;;;;;;5070373;28;20573;-71
2021/05/21 09:42:45;;;;;;;3.53;1.92;;;20.60;99.90;;;;;;5068526;28;20206;-72
2021/05/21 09:45:17;;;;;;;15.70;4.53;;;21.00;99.90;;;;;;5065601;28;20362;-72
2021/05/21 09:47:52;;;;;;;5.22;2.15;;;21.10;99.90;;;;;;5070696;28;20206;-71
2021/05/21 09:50:20;;;;;;;10.77;2.72;;;21.00;99.90;;;;;;5069768;28;20209;-71
2021/05/21 09:52:47;;;;;;;7.00;2.47;;;21.00;99.90;;;;;;5070711;28;20202;-72
2021/05/21 09:55:15;;;;;;;7.00;2.47;;;20.60;99.90;;;;;;5069767;28;20233;-71
2021/05/21 09:57:42;;;;;;;2.30;2.10;;;20.80;99.90;;;;;;5070831;28;20206;-72
2021/05/21 10:00:10;;;;;;;6.53;2.33;;;20.50;99.90;;;;;;5070130;28;20213;-71
2021/05/21 10:02:38;;;;;;;2.42;2.22;;;20.30;99.90;;;;;;5070010;28;20234;-71
2021/05/21 10:05:06;;;;;;;3.50;2.03;;;20.10;99.90;;;;;;5070048;28;20251;-70
2021/05/21 10:07:34;;;;;;;2.63;1.83;;;20.20;99.90;;;;;;5070212;28;20202;-70
2021/05/21 10:10:00;;;;;;;3.92;2.25;;;20.90;99.90;;;;;;5070893;28;20213;-71
2021/05/21 10:12:27;;;;;;;8.60;3.03;;;21.60;99.90;;;;;;5069818;28;20249;-74
2021/05/21 10:14:54;;;;;;;6.15;2.13;;;22.40;99.90;;;;;;5070202;28;20209;-72
2021/05/21 10:17:22;;;;;;;4.50;1.92;;;21.70;99.90;;;;;;5069471;28;20297;-71
2021/05/21 10:19:50;;;;;;;4.43;2.17;;;21.10;99.90;;;;;;5070234;28;20202;-73
2021/05/21 10:22:23;;;;;;;2.28;2.08;;;22.90;99.90;;;;;;5069843;28;20291;-70
2021/05/21 10:24:53;;;;;;;1.90;1.70;;;23.30;99.90;;;;;;5070029;28;20214;-71
2021/05/21 10:27:23;;;;;;;2.20;1.60;;;23.80;99.90;;;;;;5071328;28;20590;-72
2021/05/21 10:29:55;;;;;;;2.22;1.98;;;23.20;99.90;;;;;;5073775;28;20221;-71
2021/05/21 10:32:28;;;;;;;3.35;2.28;;;23.00;99.90;;;;;;5073990;28;20210;-72
2021/05/21 10:34:54;;;;;;;3.67;1.58;;;22.20;99.90;;;;;;5074215;28;20210;-71
2021/05/21 10:37:24;;;;;;;2.35;1.70;;;21.40;99.90;;;;;;5073734;28;20753;-72
2021/05/21 10:40:10;;;;;;;1.85;1.52;;;21.00;99.90;;;;;;5074312;28;20225;-71
2021/05/21 10:42:38;;;;;;;3.08;1.73;;;20.40;99.90;;;;;;5062543;28;20236;-71
2021/05/21 10:45:23;;;;;;;3.15;1.70;;;20.20;99.90;;;;;;5073730;28;20201;-71
2021/05/21 10:47:57;;;;;;;2.47;1.70;;;19.90;99.90;;;;;;5073933;28;20362;-72
2021/05/21 10:50:33;;;;;;;6.68;2.05;;;19.80;99.90;;;;;;5073503;28;20206;-71
2021/05/21 10:53:02;;;;;;;3.80;2.13;;;20.20;99.90;;;;;;5074310;28;20251;-71
2021/05/21 10:55:51;;;;;;;3.53;1.63;;;20.60;99.90;;;;;;5073370;28;20677;-70
2021/05/21 10:58:27;;;;;;;6.70;2.20;;;21.00;99.90;;;;;;5073318;28;20380;-70
2021/05/21 11:01:22;;;;;;;1.55;1.40;;;21.50;99.90;;;;;;5073678;28;20347;-70
2021/05/21 11:04:09;;;;;;;3.55;1.73;;;21.70;99.90;;;;;;5064276;28;20271;-71
2021/05/21 11:06:53;;;;;;;2.33;1.58;;;21.70;99.90;;;;;;5073846;28;20210;-72
2021/05/21 11:09:25;;;;;;;7.53;1.95;;;21.40;99.90;;;;;;5073132;28;20218;-70
2021/05/21 11:12:01;;;;;;;5.28;1.85;;;21.70;99.90;;;;;;5073304;28;20673;-71
2021/05/21 11:14:33;;;;;;;1.98;1.20;;;22.00;99.90;;;;;;5073059;28;20669;-70
2021/05/21 11:17:09;;;;;;;1.63;1.00;;;22.00;99.90;;;;;;5073801;28;20209;-70
2021/05/21 11:19:36;;;;;;;3.50;1.15;;;21.70;99.90;;;;;;5072993;28;20654;-70
2021/05/21 11:22:16;;;;;;;6.18;1.50;;;22.10;99.90;;;;;;5073702;28;20233;-71
2021/05/21 11:24:44;;;;;;;5.30;1.52;;;22.00;99.90;;;;;;5072886;28;20677;-70
2021/05/21 11:27:12;;;;;;;4.57;1.83;;;21.60;99.90;;;;;;5072627;28;20202;-70
2021/05/21 11:29:44;;;;;;;3.63;1.55;;;21.80;99.90;;;;;;5073458;28;20210;-71
2021/05/21 11:32:10;;;;;;;3.22;1.20;;;21.60;99.90;;;;;;5072990;28;20217;-69
2021/05/21 11:34:37;;;;;;;4.60;1.75;;;21.30;99.90;;;;;;5073057;28;20666;-70
2021/05/21 11:37:05;;;;;;;6.68;2.65;;;21.50;99.90;;;;;;5072913;28;20260;-71
2021/05/21 11:39:33;;;;;;;2.38;1.30;;;22.00;99.90;;;;;;5073256;28;20202;-70
2021/05/21 11:42:03;;;;;;;1.23;1.13;;;22.00;99.90;;;;;;5062106;28;20226;-73
2021/05/21 11:44:32;;;;;;;3.38;1.00;;;21.70;99.90;;;;;;5062280;28;20226;-71
2021/05/21 11:47:00;;;;;;;3.78;1.65;;;22.00;99.90;;;;;;5070360;28;20293;-71
2021/05/21 11:49:27;;;;;;;6.95;1.35;;;22.40;99.90;;;;;;5061309;28;20202;-72
2021/05/21 11:51:59;;;;;;;2.92;1.58;;;21.70;99.90;;;;;;5064498;28;20214;-72
2021/05/21 11:54:27;;;;;;;1.23;1.10;;;21.60;99.90;;;;;;5072240;28;20682;-71
2021/05/21 11:56:54;;;;;;;3.13;1.20;;;21.60;99.90;;;;;;5072366;28;20213;-72
2021/05/21 11:59:22;;;;;;;2.53;1.48;;;21.20;99.90;;;;;;5058171;28;20202;-72
2021/05/21 12:01:51;;;;;;;3.85;1.23;;;21.00;99.90;;;;;;5072341;28;20236;-71
2021/05/21 12:04:20;;;;;;;1.10;0.90;;;21.50;99.90;;;;;;5067981;28;20681;-71
2021/05/21 12:06:48;;;;;;;3.05;1.23;;;21.60;99.90;;;;;;5072105;28;20202;-71
2021/05/21 12:09:16;;;;;;;2.60;1.80;;;21.70;99.90;;;;;;5071413;28;20309;-72
2021/05/21 12:11:43;;;;;;;3.08;1.13;;;21.60;99.90;;;;;;5072286;28;20206;-78
2021/05/21 12:14:11;;;;;;;2.72;1.35;;;21.40;99.90;;;;;;5067624;28;20735;-71
2021/05/21 12:16:40;;;;;;;1.30;1.20;;;21.60;99.90;;;;;;5072000;28;20670;-70
2021/05/21 12:19:08;;;;;;;2.88;1.38;;;22.00;99.90;;;;;;5066527;28;20267;-71
2021/05/21 12:21:37;;;;;;;2.92;1.63;;;22.10;99.90;;;;;;5069563;28;20233;-70
2021/05/21 12:24:04;;;;;;;2.50;1.65;;;22.40;99.90;;;;;;5072010;28;20265;-71
2021/05/21 12:26:33;;;;;;;1.45;1.23;;;22.60;99.90;;;;;;5071838;28;20203;-71
2021/05/21 12:29:01;;;;;;;2.00;1.13;;;22.50;99.90;;;;;;5072285;28;20210;-71
2021/05/21 12:31:30;;;;;;;3.00;1.60;;;22.40;99.90;;;;;;5071205;28;20217;-72
2021/05/21 12:33:57;;;;;;;1.20;0.95;;;22.20;99.90;;;;;;5072171;28;20256;-71
2021/05/21 12:36:27;;;;;;;2.90;1.50;;;21.90;99.90;;;;;;5071235;28;20726;-71
2021/05/21 12:38:56;;;;;;;1.55;1.20;;;21.80;99.90;;;;;;5071287;28;20292;-70
2021/05/21 12:41:28;;;;;;;1.60;1.10;;;21.90;99.90;;;;;;5071128;28;20230;-71
2021/05/21 12:43:54;;;;;;;1.13;1.02;;;21.90;99.90;;;;;;5071563;28;20202;-71
2021/05/21 12:46:21;;;;;;;2.75;1.10;;;21.80;99.90;;;;;;5070897;28;20210;-71
2021/05/21 12:48:51;;;;;;;1.50;1.40;;;22.10;99.90;;;;;;5071493;28;20281;-71